sensor_id;sensor_type;location;lat;lon;timestamp;P1;durP1;ratioP1;P2;durP2;ratioP2
67248;SDS011;63247;54.300;18.592;2022-11-15T00:01:36;94.43;;;26.65;;
67248;SDS011;63247;54.300;18.592;2022-11-15T00:04:03;96.03;;;25.43;;
67248;SDS011;63247;54.300;18.592;2022-11-15T00:06:29;88.32;;;23.60;;
67248;SDS011;63247;54.300;18.592;2022-11-15T00:08:54;97.50;;;26.70;;
67248;SDS011;63247;54.300;18.592;2022-11-15T00:11:22;93.13;;;25.10;;
67248;SDS011;63247;54.300;18.592;2022-11-15T00:13:47;94.43;;;25.43;;
67248;SDS011;63247;54.300;18.592;2022-11-15T00:16:13;94.07;;;25.97;;
67248;SDS011;63247;54.300;18.592;2022-11-15T00:18:38;98.73;;;26.00;;
67248;SDS011;63247;54.300;18.592;2022-11-15T00:21:05;85.30;;;22.52;;
67248;SDS011;63247;54.300;18.592;2022-11-15T00:23:35;91.10;;;25.23;;
67248;SDS011;63247;54.300;18.592;2022-11-15T00:26:01;95.57;;;25.23;;
67248;SDS011;63247;54.300;18.592;2022-11-15T00:28:26;87.50;;;24.10;;
67248;SDS011;63247;54.300;18.592;2022-11-15T00:30:52;100.95;;;26.90;;
67248;SDS011;63247;54.300;18.592;2022-11-15T00:33:17;97.85;;;25.77;;
67248;SDS011;63247;54.300;18.592;2022-11-15T00:35:43;95.53;;;25.40;;
67248;SDS011;63247;54.300;18.592;2022-11-15T00:38:08;91.00;;;24.80;;
67248;SDS011;63247;54.300;18.592;2022-11-15T00:40:33;93.80;;;24.60;;
67248;SDS011;63247;54.300;18.592;2022-11-15T00:42:59;98.07;;;26.35;;
67248;SDS011;63247;54.300;18.592;2022-11-15T00:45:24;88.50;;;24.93;;
67248;SDS011;63247;54.300;18.592;2022-11-15T00:47:50;96.40;;;25.87;;
67248;SDS011;63247;54.300;18.592;2022-11-15T00:50:16;81.80;;;21.13;;
67248;SDS011;63247;54.300;18.592;2022-11-15T00:52:42;92.43;;;23.92;;
67248;SDS011;63247;54.300;18.592;2022-11-15T00:55:17;92.90;;;25.17;;
67248;SDS011;63247;54.300;18.592;2022-11-15T00:57:44;85.57;;;22.00;;
67248;SDS011;63247;54.300;18.592;2022-11-15T01:00:10;95.00;;;25.05;;
67248;SDS011;63247;54.300;18.592;2022-11-15T01:02:36;96.85;;;23.85;;
67248;SDS011;63247;54.300;18.592;2022-11-15T01:05:02;89.73;;;24.00;;
67248;SDS011;63247;54.300;18.592;2022-11-15T01:07:27;90.73;;;24.37;;
67248;SDS011;63247;54.300;18.592;2022-11-15T01:09:53;97.82;;;25.20;;
67248;SDS011;63247;54.300;18.592;2022-11-15T01:12:18;90.13;;;22.60;;
67248;SDS011;63247;54.300;18.592;2022-11-15T01:14:44;88.73;;;23.10;;
67248;SDS011;63247;54.300;18.592;2022-11-15T01:17:09;92.40;;;24.73;;
67248;SDS011;63247;54.300;18.592;2022-11-15T01:19:34;94.97;;;25.17;;
67248;SDS011;63247;54.300;18.592;2022-11-15T01:22:00;102.00;;;26.85;;
67248;SDS011;63247;54.300;18.592;2022-11-15T01:24:25;100.57;;;25.10;;
67248;SDS011;63247;54.300;18.592;2022-11-15T01:26:51;101.53;;;26.63;;
67248;SDS011;63247;54.300;18.592;2022-11-15T01:29:16;105.77;;;26.20;;
67248;SDS011;63247;54.300;18.592;2022-11-15T01:31:42;104.20;;;26.93;;
67248;SDS011;63247;54.300;18.592;2022-11-15T01:34:07;106.82;;;28.02;;
67248;SDS011;63247;54.300;18.592;2022-11-15T01:36:33;119.13;;;28.25;;
67248;SDS011;63247;54.300;18.592;2022-11-15T01:38:58;121.43;;;29.07;;
67248;SDS011;63247;54.300;18.592;2022-11-15T01:41:25;104.47;;;25.75;;
67248;SDS011;63247;54.300;18.592;2022-11-15T01:43:54;106.97;;;27.53;;
67248;SDS011;63247;54.300;18.592;2022-11-15T01:48:50;109.13;;;26.33;;
67248;SDS011;63247;54.300;18.592;2022-11-15T01:51:18;115.10;;;29.85;;
67248;SDS011;63247;54.300;18.592;2022-11-15T01:53:45;112.65;;;26.95;;
67248;SDS011;63247;54.300;18.592;2022-11-15T01:56:14;112.57;;;27.17;;
67248;SDS011;63247;54.300;18.592;2022-11-15T01:58:43;117.00;;;27.20;;
67248;SDS011;63247;54.300;18.592;2022-11-15T02:01:10;118.70;;;27.90;;
67248;SDS011;63247;54.300;18.592;2022-11-15T02:03:56;128.32;;;28.40;;
67248;SDS011;63247;54.300;18.592;2022-11-15T02:06:25;120.75;;;28.30;;
67248;SDS011;63247;54.300;18.592;2022-11-15T02:08:51;134.17;;;30.50;;
67248;SDS011;63247;54.300;18.592;2022-11-15T02:11:17;130.70;;;29.83;;
67248;SDS011;63247;54.300;18.592;2022-11-15T02:13:42;131.40;;;29.37;;
67248;SDS011;63247;54.300;18.592;2022-11-15T02:16:12;124.28;;;28.27;;
67248;SDS011;63247;54.300;18.592;2022-11-15T02:18:47;124.43;;;29.20;;
67248;SDS011;63247;54.300;18.592;2022-11-15T02:21:19;134.05;;;30.48;;
67248;SDS011;63247;54.300;18.592;2022-11-15T02:32:06;143.27;;;30.23;;
67248;SDS011;63247;54.300;18.592;2022-11-15T02:34:50;133.82;;;30.33;;
67248;SDS011;63247;54.300;18.592;2022-11-15T02:40:47;133.05;;;29.10;;
67248;SDS011;63247;54.300;18.592;2022-11-15T02:43:09;128.90;;;28.05;;
67248;SDS011;63247;54.300;18.592;2022-11-15T02:46:02;118.77;;;27.37;;
67248;SDS011;63247;54.300;18.592;2022-11-15T02:48:37;119.85;;;27.23;;
67248;SDS011;63247;54.300;18.592;2022-11-15T02:51:02;122.70;;;27.52;;
67248;SDS011;63247;54.300;18.592;2022-11-15T02:53:29;115.80;;;26.45;;
67248;SDS011;63247;54.300;18.592;2022-11-15T02:55:54;112.90;;;26.33;;
67248;SDS011;63247;54.300;18.592;2022-11-15T03:06:26;131.85;;;28.60;;
67248;SDS011;63247;54.300;18.592;2022-11-15T03:11:34;114.97;;;27.20;;
67248;SDS011;63247;54.300;18.592;2022-11-15T03:19:45;122.07;;;27.45;;
67248;SDS011;63247;54.300;18.592;2022-11-15T03:22:14;129.95;;;26.02;;
67248;SDS011;63247;54.300;18.592;2022-11-15T03:24:43;131.85;;;29.52;;
67248;SDS011;63247;54.300;18.592;2022-11-15T03:27:12;128.93;;;26.80;;
67248;SDS011;63247;54.300;18.592;2022-11-15T03:29:47;132.23;;;28.25;;
67248;SDS011;63247;54.300;18.592;2022-11-15T03:32:19;140.73;;;27.92;;
67248;SDS011;63247;54.300;18.592;2022-11-15T03:35:48;147.77;;;29.25;;
67248;SDS011;63247;54.300;18.592;2022-11-15T03:40:16;147.73;;;29.13;;
67248;SDS011;63247;54.300;18.592;2022-11-15T03:42:46;158.57;;;31.13;;
67248;SDS011;63247;54.300;18.592;2022-11-15T03:45:18;162.93;;;31.88;;
67248;SDS011;63247;54.300;18.592;2022-11-15T03:47:54;147.63;;;31.80;;
67248;SDS011;63247;54.300;18.592;2022-11-15T03:50:26;145.52;;;29.27;;
67248;SDS011;63247;54.300;18.592;2022-11-15T03:52:52;172.50;;;33.00;;
67248;SDS011;63247;54.300;18.592;2022-11-15T03:55:20;160.88;;;30.77;;
67248;SDS011;63247;54.300;18.592;2022-11-15T03:57:48;149.18;;;29.90;;
67248;SDS011;63247;54.300;18.592;2022-11-15T04:00:18;135.15;;;27.50;;
67248;SDS011;63247;54.300;18.592;2022-11-15T04:02:43;145.57;;;29.87;;
67248;SDS011;63247;54.300;18.592;2022-11-15T04:05:09;143.30;;;29.00;;
67248;SDS011;63247;54.300;18.592;2022-11-15T04:07:35;145.07;;;30.67;;
67248;SDS011;63247;54.300;18.592;2022-11-15T04:10:00;145.60;;;29.57;;
67248;SDS011;63247;54.300;18.592;2022-11-15T04:12:29;153.65;;;30.48;;
67248;SDS011;63247;54.300;18.592;2022-11-15T04:14:59;151.73;;;30.25;;
67248;SDS011;63247;54.300;18.592;2022-11-15T04:17:32;144.20;;;30.42;;
67248;SDS011;63247;54.300;18.592;2022-11-15T04:20:06;157.10;;;31.03;;
67248;SDS011;63247;54.300;18.592;2022-11-15T04:22:53;133.35;;;26.70;;
67248;SDS011;63247;54.300;18.592;2022-11-15T04:25:37;133.10;;;26.85;;
67248;SDS011;63247;54.300;18.592;2022-11-15T04:28:03;150.55;;;30.17;;
67248;SDS011;63247;54.300;18.592;2022-11-15T04:30:28;162.35;;;31.35;;
67248;SDS011;63247;54.300;18.592;2022-11-15T04:32:54;164.27;;;28.90;;
67248;SDS011;63247;54.300;18.592;2022-11-15T04:35:19;163.87;;;29.87;;
67248;SDS011;63247;54.300;18.592;2022-11-15T04:37:45;154.00;;;29.63;;
67248;SDS011;63247;54.300;18.592;2022-11-15T04:40:10;145.50;;;28.25;;
67248;SDS011;63247;54.300;18.592;2022-11-15T04:42:36;154.50;;;29.20;;
67248;SDS011;63247;54.300;18.592;2022-11-15T04:45:01;148.53;;;28.63;;
67248;SDS011;63247;54.300;18.592;2022-11-15T04:47:26;134.47;;;27.23;;
67248;SDS011;63247;54.300;18.592;2022-11-15T04:49:53;137.43;;;26.85;;
67248;SDS011;63247;54.300;18.592;2022-11-15T04:52:18;154.60;;;29.63;;
67248;SDS011;63247;54.300;18.592;2022-11-15T04:54:43;137.43;;;26.42;;
67248;SDS011;63247;54.300;18.592;2022-11-15T04:57:09;130.10;;;25.63;;
67248;SDS011;63247;54.300;18.592;2022-11-15T04:59:35;128.50;;;26.10;;
67248;SDS011;63247;54.300;18.592;2022-11-15T05:02:00;137.52;;;27.08;;
67248;SDS011;63247;54.300;18.592;2022-11-15T05:04:25;141.20;;;27.43;;
67248;SDS011;63247;54.300;18.592;2022-11-15T05:06:51;152.63;;;27.50;;
67248;SDS011;63247;54.300;18.592;2022-11-15T05:09:20;150.82;;;28.77;;
67248;SDS011;63247;54.300;18.592;2022-11-15T05:11:46;149.07;;;30.40;;
67248;SDS011;63247;54.300;18.592;2022-11-15T05:14:12;143.30;;;27.80;;
67248;SDS011;63247;54.300;18.592;2022-11-15T05:16:38;150.38;;;28.80;;
67248;SDS011;63247;54.300;18.592;2022-11-15T05:19:04;153.75;;;28.92;;
67248;SDS011;63247;54.300;18.592;2022-11-15T05:21:30;138.50;;;25.97;;
67248;SDS011;63247;54.300;18.592;2022-11-15T05:23:56;144.32;;;27.35;;
67248;SDS011;63247;54.300;18.592;2022-11-15T05:26:22;140.40;;;26.67;;
67248;SDS011;63247;54.300;18.592;2022-11-15T05:28:51;158.68;;;29.30;;
67248;SDS011;63247;54.300;18.592;2022-11-15T05:31:17;134.07;;;25.45;;
67248;SDS011;63247;54.300;18.592;2022-11-15T05:33:43;157.70;;;28.60;;
67248;SDS011;63247;54.300;18.592;2022-11-15T05:39:04;133.38;;;25.58;;
67248;SDS011;63247;54.300;18.592;2022-11-15T05:41:32;135.27;;;27.15;;
67248;SDS011;63247;54.300;18.592;2022-11-15T05:44:01;143.57;;;29.13;;
67248;SDS011;63247;54.300;18.592;2022-11-15T05:46:28;127.10;;;25.37;;
67248;SDS011;63247;54.300;18.592;2022-11-15T05:48:54;133.50;;;26.27;;
67248;SDS011;63247;54.300;18.592;2022-11-15T05:51:21;127.88;;;25.73;;
67248;SDS011;63247;54.300;18.592;2022-11-15T05:53:48;130.43;;;28.23;;
67248;SDS011;63247;54.300;18.592;2022-11-15T05:56:14;122.53;;;23.98;;
67248;SDS011;63247;54.300;18.592;2022-11-15T05:58:40;129.97;;;25.37;;
67248;SDS011;63247;54.300;18.592;2022-11-15T06:01:06;121.93;;;24.10;;
67248;SDS011;63247;54.300;18.592;2022-11-15T06:03:31;117.83;;;23.10;;
67248;SDS011;63247;54.300;18.592;2022-11-15T06:05:56;105.90;;;23.33;;
67248;SDS011;63247;54.300;18.592;2022-11-15T06:08:22;93.88;;;22.08;;
67248;SDS011;63247;54.300;18.592;2022-11-15T06:10:47;96.23;;;21.00;;
67248;SDS011;63247;54.300;18.592;2022-11-15T06:13:13;103.13;;;22.07;;
67248;SDS011;63247;54.300;18.592;2022-11-15T06:15:38;99.97;;;21.27;;
67248;SDS011;63247;54.300;18.592;2022-11-15T06:18:03;104.13;;;21.53;;
67248;SDS011;63247;54.300;18.592;2022-11-15T06:20:29;96.60;;;20.75;;
67248;SDS011;63247;54.300;18.592;2022-11-15T06:22:58;91.30;;;20.13;;
67248;SDS011;63247;54.300;18.592;2022-11-15T06:25:27;94.53;;;20.92;;
67248;SDS011;63247;54.300;18.592;2022-11-15T06:27:54;99.43;;;21.67;;
67248;SDS011;63247;54.300;18.592;2022-11-15T06:30:20;96.03;;;21.07;;
67248;SDS011;63247;54.300;18.592;2022-11-15T06:32:46;94.80;;;20.88;;
67248;SDS011;63247;54.300;18.592;2022-11-15T06:35:12;90.23;;;21.60;;
67248;SDS011;63247;54.300;18.592;2022-11-15T06:37:38;90.30;;;19.73;;
67248;SDS011;63247;54.300;18.592;2022-11-15T06:40:03;89.93;;;20.83;;
67248;SDS011;63247;54.300;18.592;2022-11-15T06:42:29;91.20;;;19.55;;
67248;SDS011;63247;54.300;18.592;2022-11-15T06:44:54;90.87;;;19.80;;
67248;SDS011;63247;54.300;18.592;2022-11-15T06:47:19;96.10;;;20.53;;
67248;SDS011;63247;54.300;18.592;2022-11-15T06:49:45;88.57;;;20.33;;
67248;SDS011;63247;54.300;18.592;2022-11-15T06:52:10;82.77;;;19.17;;
67248;SDS011;63247;54.300;18.592;2022-11-15T06:54:36;89.07;;;19.77;;
67248;SDS011;63247;54.300;18.592;2022-11-15T06:57:01;83.65;;;20.15;;
67248;SDS011;63247;54.300;18.592;2022-11-15T06:59:28;84.10;;;19.03;;
67248;SDS011;63247;54.300;18.592;2022-11-15T07:01:54;81.10;;;18.83;;
67248;SDS011;63247;54.300;18.592;2022-11-15T07:04:19;86.30;;;20.35;;
67248;SDS011;63247;54.300;18.592;2022-11-15T07:06:48;74.30;;;18.80;;
67248;SDS011;63247;54.300;18.592;2022-11-15T07:09:13;81.05;;;19.30;;
67248;SDS011;63247;54.300;18.592;2022-11-15T07:11:39;84.83;;;20.00;;
67248;SDS011;63247;54.300;18.592;2022-11-15T07:14:04;85.73;;;19.60;;
67248;SDS011;63247;54.300;18.592;2022-11-15T07:16:29;75.35;;;17.92;;
67248;SDS011;63247;54.300;18.592;2022-11-15T07:18:55;75.27;;;17.83;;
67248;SDS011;63247;54.300;18.592;2022-11-15T07:21:20;75.90;;;19.47;;
67248;SDS011;63247;54.300;18.592;2022-11-15T07:23:46;76.23;;;19.37;;
67248;SDS011;63247;54.300;18.592;2022-11-15T07:26:11;72.83;;;18.07;;
67248;SDS011;63247;54.300;18.592;2022-11-15T07:28:36;60.13;;;16.80;;
67248;SDS011;63247;54.300;18.592;2022-11-15T07:31:03;65.07;;;16.88;;
67248;SDS011;63247;54.300;18.592;2022-11-15T07:33:29;61.93;;;16.63;;
67248;SDS011;63247;54.300;18.592;2022-11-15T07:35:58;60.28;;;16.27;;
67248;SDS011;63247;54.300;18.592;2022-11-15T07:38:26;57.85;;;15.90;;
67248;SDS011;63247;54.300;18.592;2022-11-15T07:40:55;61.33;;;16.53;;
67248;SDS011;63247;54.300;18.592;2022-11-15T07:43:25;61.80;;;16.73;;
67248;SDS011;63247;54.300;18.592;2022-11-15T07:45:52;65.97;;;17.63;;
67248;SDS011;63247;54.300;18.592;2022-11-15T07:48:18;63.42;;;17.58;;
67248;SDS011;63247;54.300;18.592;2022-11-15T07:50:44;58.23;;;14.77;;
67248;SDS011;63247;54.300;18.592;2022-11-15T07:53:10;58.87;;;15.27;;
67248;SDS011;63247;54.300;18.592;2022-11-15T07:55:35;56.88;;;15.65;;
67248;SDS011;63247;54.300;18.592;2022-11-15T07:58:05;54.92;;;15.80;;
67248;SDS011;63247;54.300;18.592;2022-11-15T08:00:33;53.10;;;15.87;;
67248;SDS011;63247;54.300;18.592;2022-11-15T08:03:06;55.00;;;16.20;;
67248;SDS011;63247;54.300;18.592;2022-11-15T08:05:33;53.65;;;15.73;;
67248;SDS011;63247;54.300;18.592;2022-11-15T08:07:59;53.13;;;16.00;;
67248;SDS011;63247;54.300;18.592;2022-11-15T08:10:25;54.10;;;14.97;;
67248;SDS011;63247;54.300;18.592;2022-11-15T08:13:10;58.55;;;15.68;;
67248;SDS011;63247;54.300;18.592;2022-11-15T08:15:36;57.15;;;15.75;;
67248;SDS011;63247;54.300;18.592;2022-11-15T08:18:03;53.57;;;15.33;;
67248;SDS011;63247;54.300;18.592;2022-11-15T08:20:30;60.35;;;16.80;;
67248;SDS011;63247;54.300;18.592;2022-11-15T08:22:59;58.13;;;16.38;;
67248;SDS011;63247;54.300;18.592;2022-11-15T08:25:27;59.15;;;16.42;;
67248;SDS011;63247;54.300;18.592;2022-11-15T08:27:55;54.33;;;14.83;;
67248;SDS011;63247;54.300;18.592;2022-11-15T08:30:21;55.85;;;16.30;;
67248;SDS011;63247;54.300;18.592;2022-11-15T08:32:48;46.90;;;13.75;;
67248;SDS011;63247;54.300;18.592;2022-11-15T08:35:14;50.50;;;14.27;;
67248;SDS011;63247;54.300;18.592;2022-11-15T08:37:39;51.20;;;15.13;;
67248;SDS011;63247;54.300;18.592;2022-11-15T08:40:05;48.87;;;14.37;;
67248;SDS011;63247;54.300;18.592;2022-11-15T08:42:31;49.03;;;14.02;;
67248;SDS011;63247;54.300;18.592;2022-11-15T08:44:56;46.87;;;14.10;;
67248;SDS011;63247;54.300;18.592;2022-11-15T08:47:22;47.80;;;13.30;;
67248;SDS011;63247;54.300;18.592;2022-11-15T08:49:47;46.97;;;13.55;;
67248;SDS011;63247;54.300;18.592;2022-11-15T08:52:13;47.83;;;14.73;;
67248;SDS011;63247;54.300;18.592;2022-11-15T08:54:39;48.00;;;14.40;;
67248;SDS011;63247;54.300;18.592;2022-11-15T08:57:05;52.60;;;15.17;;
67248;SDS011;63247;54.300;18.592;2022-11-15T08:59:30;54.55;;;15.35;;
67248;SDS011;63247;54.300;18.592;2022-11-15T09:01:56;52.20;;;14.95;;
67248;SDS011;63247;54.300;18.592;2022-11-15T09:04:21;54.73;;;16.37;;
67248;SDS011;63247;54.300;18.592;2022-11-15T09:06:47;55.67;;;14.97;;
67248;SDS011;63247;54.300;18.592;2022-11-15T09:09:12;51.77;;;14.90;;
67248;SDS011;63247;54.300;18.592;2022-11-15T09:11:37;55.23;;;15.37;;
67248;SDS011;63247;54.300;18.592;2022-11-15T09:14:03;57.17;;;15.57;;
67248;SDS011;63247;54.300;18.592;2022-11-15T09:16:30;54.33;;;15.57;;
67248;SDS011;63247;54.300;18.592;2022-11-15T09:18:56;56.42;;;16.40;;
67248;SDS011;63247;54.300;18.592;2022-11-15T09:21:21;52.30;;;15.77;;
67248;SDS011;63247;54.300;18.592;2022-11-15T09:23:49;54.58;;;15.60;;
67248;SDS011;63247;54.300;18.592;2022-11-15T09:26:15;55.63;;;16.58;;
67248;SDS011;63247;54.300;18.592;2022-11-15T09:28:41;57.33;;;16.57;;
67248;SDS011;63247;54.300;18.592;2022-11-15T09:31:07;53.65;;;15.57;;
67248;SDS011;63247;54.300;18.592;2022-11-15T09:33:32;49.50;;;13.80;;
67248;SDS011;63247;54.300;18.592;2022-11-15T09:36:05;45.05;;;14.25;;
67248;SDS011;63247;54.300;18.592;2022-11-15T09:38:32;45.38;;;14.18;;
67248;SDS011;63247;54.300;18.592;2022-11-15T09:46:47;49.22;;;14.20;;
67248;SDS011;63247;54.300;18.592;2022-11-15T09:49:31;51.17;;;14.40;;
67248;SDS011;63247;54.300;18.592;2022-11-15T09:51:57;50.80;;;14.97;;
67248;SDS011;63247;54.300;18.592;2022-11-15T09:57:15;49.58;;;13.15;;
67248;SDS011;63247;54.300;18.592;2022-11-15T10:05:07;48.65;;;14.20;;
67248;SDS011;63247;54.300;18.592;2022-11-15T10:10:20;50.75;;;14.27;;
67248;SDS011;63247;54.300;18.592;2022-11-15T10:12:52;52.37;;;14.43;;
67248;SDS011;63247;54.300;18.592;2022-11-15T10:15:18;50.15;;;14.38;;
67248;SDS011;63247;54.300;18.592;2022-11-15T10:17:56;59.03;;;15.82;;
67248;SDS011;63247;54.300;18.592;2022-11-15T10:20:32;51.85;;;15.20;;
67248;SDS011;63247;54.300;18.592;2022-11-15T10:23:06;50.30;;;14.00;;
67248;SDS011;63247;54.300;18.592;2022-11-15T10:25:35;56.60;;;15.05;;
67248;SDS011;63247;54.300;18.592;2022-11-15T10:30:36;57.10;;;15.95;;
67248;SDS011;63247;54.300;18.592;2022-11-15T10:43:45;58.35;;;17.00;;
67248;SDS011;63247;54.300;18.592;2022-11-15T10:46:33;138.43;;;48.92;;
67248;SDS011;63247;54.300;18.592;2022-11-15T10:49:13;78.60;;;24.20;;
67248;SDS011;63247;54.300;18.592;2022-11-15T10:52:24;66.65;;;19.27;;
67248;SDS011;63247;54.300;18.592;2022-11-15T10:54:39;59.20;;;17.23;;
67248;SDS011;63247;54.300;18.592;2022-11-15T10:57:16;62.20;;;17.90;;
67248;SDS011;63247;54.300;18.592;2022-11-15T10:59:48;63.33;;;17.30;;
67248;SDS011;63247;54.300;18.592;2022-11-15T11:02:25;58.92;;;17.23;;
67248;SDS011;63247;54.300;18.592;2022-11-15T11:04:54;60.13;;;17.27;;
67248;SDS011;63247;54.300;18.592;2022-11-15T11:07:20;59.73;;;16.53;;
67248;SDS011;63247;54.300;18.592;2022-11-15T11:09:56;60.28;;;17.38;;
67248;SDS011;63247;54.300;18.592;2022-11-15T11:12:45;57.90;;;17.13;;
67248;SDS011;63247;54.300;18.592;2022-11-15T11:15:14;61.70;;;18.02;;
67248;SDS011;63247;54.300;18.592;2022-11-15T11:17:49;61.97;;;17.97;;
67248;SDS011;63247;54.300;18.592;2022-11-15T11:26:01;61.10;;;17.73;;
67248;SDS011;63247;54.300;18.592;2022-11-15T11:29:10;57.63;;;16.42;;
67248;SDS011;63247;54.300;18.592;2022-11-15T11:31:58;58.53;;;16.50;;
67248;SDS011;63247;54.300;18.592;2022-11-15T11:50:52;61.70;;;17.93;;
67248;SDS011;63247;54.300;18.592;2022-11-15T11:53:41;61.78;;;19.50;;
67248;SDS011;63247;54.300;18.592;2022-11-15T11:56:19;66.80;;;19.88;;
67248;SDS011;63247;54.300;18.592;2022-11-15T11:58:49;72.78;;;21.58;;
67248;SDS011;63247;54.300;18.592;2022-11-15T12:10:26;77.28;;;21.73;;
67248;SDS011;63247;54.300;18.592;2022-11-15T12:12:29;64.28;;;17.88;;
67248;SDS011;63247;54.300;18.592;2022-11-15T12:17:40;65.00;;;19.43;;
67248;SDS011;63247;54.300;18.592;2022-11-15T12:20:14;70.45;;;20.92;;
67248;SDS011;63247;54.300;18.592;2022-11-15T12:22:43;67.93;;;19.65;;
67248;SDS011;63247;54.300;18.592;2022-11-15T12:25:33;109.78;;;35.63;;
67248;SDS011;63247;54.300;18.592;2022-11-15T12:38:55;63.35;;;18.23;;
67248;SDS011;63247;54.300;18.592;2022-11-15T12:41:24;86.35;;;25.40;;
67248;SDS011;63247;54.300;18.592;2022-11-15T12:43:50;83.37;;;23.00;;
67248;SDS011;63247;54.300;18.592;2022-11-15T12:48:47;79.73;;;21.47;;
67248;SDS011;63247;54.300;18.592;2022-11-15T13:02:33;84.33;;;24.00;;
67248;SDS011;63247;54.300;18.592;2022-11-15T13:22:46;105.05;;;28.88;;
67248;SDS011;63247;54.300;18.592;2022-11-15T13:33:34;88.10;;;24.33;;
67248;SDS011;63247;54.300;18.592;2022-11-15T13:39:01;86.80;;;23.85;;
67248;SDS011;63247;54.300;18.592;2022-11-15T13:41:33;97.30;;;25.90;;
67248;SDS011;63247;54.300;18.592;2022-11-15T13:44:01;76.97;;;20.48;;
67248;SDS011;63247;54.300;18.592;2022-11-15T13:46:28;125.67;;;34.00;;
67248;SDS011;63247;54.300;18.592;2022-11-15T13:48:57;112.90;;;35.13;;
67248;SDS011;63247;54.300;18.592;2022-11-15T13:53:54;77.53;;;21.70;;
67248;SDS011;63247;54.300;18.592;2022-11-15T13:56:45;61.25;;;15.55;;
67248;SDS011;63247;54.300;18.592;2022-11-15T13:59:28;90.53;;;26.20;;
67248;SDS011;63247;54.300;18.592;2022-11-15T14:01:58;94.07;;;24.17;;
67248;SDS011;63247;54.300;18.592;2022-11-15T14:04:27;93.25;;;24.85;;
67248;SDS011;63247;54.300;18.592;2022-11-15T14:06:56;95.15;;;27.30;;
67248;SDS011;63247;54.300;18.592;2022-11-15T14:11:55;82.27;;;23.67;;
67248;SDS011;63247;54.300;18.592;2022-11-15T14:14:22;99.95;;;27.33;;
67248;SDS011;63247;54.300;18.592;2022-11-15T14:16:53;109.32;;;36.58;;
67248;SDS011;63247;54.300;18.592;2022-11-15T14:24:38;79.30;;;22.35;;
67248;SDS011;63247;54.300;18.592;2022-11-15T14:29:47;102.10;;;33.63;;
67248;SDS011;63247;54.300;18.592;2022-11-15T14:34:57;152.45;;;50.63;;
67248;SDS011;63247;54.300;18.592;2022-11-15T14:37:27;96.72;;;26.77;;
67248;SDS011;63247;54.300;18.592;2022-11-15T14:39:58;63.47;;;16.87;;
67248;SDS011;63247;54.300;18.592;2022-11-15T14:42:23;98.82;;;26.10;;
67248;SDS011;63247;54.300;18.592;2022-11-15T14:44:50;79.55;;;20.30;;
67248;SDS011;63247;54.300;18.592;2022-11-15T14:47:16;72.00;;;18.90;;
67248;SDS011;63247;54.300;18.592;2022-11-15T14:49:41;65.88;;;18.05;;
67248;SDS011;63247;54.300;18.592;2022-11-15T14:52:27;134.80;;;45.20;;
67248;SDS011;63247;54.300;18.592;2022-11-15T14:54:55;67.80;;;18.73;;
67248;SDS011;63247;54.300;18.592;2022-11-15T14:57:23;63.80;;;17.13;;
67248;SDS011;63247;54.300;18.592;2022-11-15T14:59:48;71.72;;;19.40;;
67248;SDS011;63247;54.300;18.592;2022-11-15T15:02:21;54.47;;;16.20;;
67248;SDS011;63247;54.300;18.592;2022-11-15T15:04:48;73.17;;;18.43;;
67248;SDS011;63247;54.300;18.592;2022-11-15T15:07:15;90.30;;;21.58;;
67248;SDS011;63247;54.300;18.592;2022-11-15T15:09:41;89.68;;;23.15;;
67248;SDS011;63247;54.300;18.592;2022-11-15T15:12:14;67.55;;;17.48;;
67248;SDS011;63247;54.300;18.592;2022-11-15T15:14:48;61.95;;;16.00;;
67248;SDS011;63247;54.300;18.592;2022-11-15T15:17:15;65.40;;;16.80;;
67248;SDS011;63247;54.300;18.592;2022-11-15T15:19:41;79.90;;;21.52;;
67248;SDS011;63247;54.300;18.592;2022-11-15T15:22:13;74.32;;;20.75;;
67248;SDS011;63247;54.300;18.592;2022-11-15T15:24:40;90.13;;;25.50;;
67248;SDS011;63247;54.300;18.592;2022-11-15T15:27:06;90.95;;;25.38;;
67248;SDS011;63247;54.300;18.592;2022-11-15T15:29:32;70.43;;;19.27;;
67248;SDS011;63247;54.300;18.592;2022-11-15T15:31:57;78.50;;;22.35;;
67248;SDS011;63247;54.300;18.592;2022-11-15T15:34:22;79.83;;;20.77;;
67248;SDS011;63247;54.300;18.592;2022-11-15T15:36:48;79.07;;;22.70;;
67248;SDS011;63247;54.300;18.592;2022-11-15T15:39:13;68.27;;;19.30;;
67248;SDS011;63247;54.300;18.592;2022-11-15T15:41:39;75.47;;;19.00;;
67248;SDS011;63247;54.300;18.592;2022-11-15T15:44:04;71.90;;;18.38;;
67248;SDS011;63247;54.300;18.592;2022-11-15T15:46:30;77.93;;;21.03;;
67248;SDS011;63247;54.300;18.592;2022-11-15T15:48:55;75.93;;;25.77;;
67248;SDS011;63247;54.300;18.592;2022-11-15T15:51:21;88.85;;;27.50;;
67248;SDS011;63247;54.300;18.592;2022-11-15T15:53:46;81.17;;;22.60;;
67248;SDS011;63247;54.300;18.592;2022-11-15T15:56:13;109.32;;;38.05;;
67248;SDS011;63247;54.300;18.592;2022-11-15T15:58:39;80.87;;;22.90;;
67248;SDS011;63247;54.300;18.592;2022-11-15T16:01:04;70.82;;;20.58;;
67248;SDS011;63247;54.300;18.592;2022-11-15T16:03:30;71.70;;;19.77;;
67248;SDS011;63247;54.300;18.592;2022-11-15T16:05:56;69.03;;;20.08;;
67248;SDS011;63247;54.300;18.592;2022-11-15T16:08:23;63.53;;;18.33;;
67248;SDS011;63247;54.300;18.592;2022-11-15T16:10:51;64.53;;;18.33;;
67248;SDS011;63247;54.300;18.592;2022-11-15T16:13:16;67.47;;;18.02;;
67248;SDS011;63247;54.300;18.592;2022-11-15T16:15:42;67.72;;;19.40;;
67248;SDS011;63247;54.300;18.592;2022-11-15T16:18:12;65.03;;;18.90;;
67248;SDS011;63247;54.300;18.592;2022-11-15T16:20:47;67.05;;;18.00;;
67248;SDS011;63247;54.300;18.592;2022-11-15T16:23:21;65.23;;;18.93;;
67248;SDS011;63247;54.300;18.592;2022-11-15T16:25:49;84.00;;;21.45;;
67248;SDS011;63247;54.300;18.592;2022-11-15T16:28:18;76.13;;;23.88;;
67248;SDS011;63247;54.300;18.592;2022-11-15T16:31:05;79.15;;;23.55;;
67248;SDS011;63247;54.300;18.592;2022-11-15T16:33:33;76.43;;;24.15;;
67248;SDS011;63247;54.300;18.592;2022-11-15T16:35:58;80.60;;;24.27;;
67248;SDS011;63247;54.300;18.592;2022-11-15T16:38:24;78.27;;;23.93;;
67248;SDS011;63247;54.300;18.592;2022-11-15T16:40:49;83.50;;;24.70;;
67248;SDS011;63247;54.300;18.592;2022-11-15T16:43:15;78.93;;;23.42;;
67248;SDS011;63247;54.300;18.592;2022-11-15T16:45:40;78.00;;;22.60;;
67248;SDS011;63247;54.300;18.592;2022-11-15T16:48:06;68.57;;;19.97;;
67248;SDS011;63247;54.300;18.592;2022-11-15T16:50:39;67.90;;;19.38;;
67248;SDS011;63247;54.300;18.592;2022-11-15T16:53:05;62.97;;;19.00;;
67248;SDS011;63247;54.300;18.592;2022-11-15T16:55:31;69.88;;;19.92;;
67248;SDS011;63247;54.300;18.592;2022-11-15T16:57:56;68.13;;;21.38;;
67248;SDS011;63247;54.300;18.592;2022-11-15T17:00:22;68.07;;;21.63;;